Terminal Aerodrome Forecast
Issued by NWS

Home | Current Version | Previous Version | Text Only | Print | Product List | Glossary On
Versions: 1 2 3 4 5 6 7 8 9 10 11 12 13 14
000
FTUS43 KGRR 261100 RRA
TAFMKG
TAF
KMKG 261145Z 2612/2712 20007KT P6SM SCT035
     FM261600 22010KT P6SM BKN035
     FM270900 VRB03KT 3SM BR SCT015=

USA.gov is the U.S. government's official web portal to all federal, state and local government web resources and services.